sensor_id;sensor_type;location;lat;lon;timestamp;P1;durP1;ratioP1;P2;durP2;ratioP2
23360;SDS011;11852;50.082;18.554;2024-02-28T00:00:40;83.4;;;52.4;;
23360;SDS011;11852;50.082;18.554;2024-02-28T00:02:55;81.6;;;51.6;;
23360;SDS011;11852;50.082;18.554;2024-02-28T00:04:00;85.6;;;54.0;;
23360;SDS011;11852;50.082;18.554;2024-02-28T00:05:05;85.5;;;54.8;;
23360;SDS011;11852;50.082;18.554;2024-02-28T00:06:10;84.6;;;53.8;;
23360;SDS011;11852;50.082;18.554;2024-02-28T00:07:15;79.9;;;50.6;;
23360;SDS011;11852;50.082;18.554;2024-02-28T00:08:20;81.2;;;53.3;;
23360;SDS011;11852;50.082;18.554;2024-02-28T00:09:25;78.2;;;50.6;;
23360;SDS011;11852;50.082;18.554;2024-02-28T00:10:31;79.7;;;51.1;;
23360;SDS011;11852;50.082;18.554;2024-02-28T00:11:35;79.3;;;51.5;;
23360;SDS011;11852;50.082;18.554;2024-02-28T00:12:40;82.7;;;53.8;;
23360;SDS011;11852;50.082;18.554;2024-02-28T00:13:44;80.8;;;52.5;;
23360;SDS011;11852;50.082;18.554;2024-02-28T00:14:49;80.9;;;52.5;;
23360;SDS011;11852;50.082;18.554;2024-02-28T00:15:54;78.3;;;51.0;;
23360;SDS011;11852;50.082;18.554;2024-02-28T00:16:59;80.0;;;51.7;;
23360;SDS011;11852;50.082;18.554;2024-02-28T00:18:04;79.2;;;53.4;;
23360;SDS011;11852;50.082;18.554;2024-02-28T00:19:09;79.5;;;50.4;;
23360;SDS011;11852;50.082;18.554;2024-02-28T00:20:14;82.5;;;53.5;;
23360;SDS011;11852;50.082;18.554;2024-02-28T00:21:19;82.1;;;54.0;;
23360;SDS011;11852;50.082;18.554;2024-02-28T00:22:24;81.5;;;51.4;;
23360;SDS011;11852;50.082;18.554;2024-02-28T00:23:31;82.9;;;52.8;;
23360;SDS011;11852;50.082;18.554;2024-02-28T00:24:40;79.1;;;49.2;;
23360;SDS011;11852;50.082;18.554;2024-02-28T00:25:44;78.7;;;52.6;;
23360;SDS011;11852;50.082;18.554;2024-02-28T00:26:51;77.4;;;50.9;;
23360;SDS011;11852;50.082;18.554;2024-02-28T00:27:56;81.2;;;52.1;;
23360;SDS011;11852;50.082;18.554;2024-02-28T00:29:01;83.6;;;55.4;;
23360;SDS011;11852;50.082;18.554;2024-02-28T00:30:06;81.5;;;54.3;;
23360;SDS011;11852;50.082;18.554;2024-02-28T00:31:11;77.5;;;52.4;;
23360;SDS011;11852;50.082;18.554;2024-02-28T00:32:16;82.8;;;52.6;;
23360;SDS011;11852;50.082;18.554;2024-02-28T00:33:21;80.7;;;52.3;;
23360;SDS011;11852;50.082;18.554;2024-02-28T00:34:26;82.6;;;52.3;;
23360;SDS011;11852;50.082;18.554;2024-02-28T00:35:31;80.2;;;52.0;;
23360;SDS011;11852;50.082;18.554;2024-02-28T00:36:38;75.7;;;49.9;;
23360;SDS011;11852;50.082;18.554;2024-02-28T00:37:43;75.8;;;50.7;;
23360;SDS011;11852;50.082;18.554;2024-02-28T00:38:48;74.9;;;49.0;;
23360;SDS011;11852;50.082;18.554;2024-02-28T00:39:53;78.4;;;51.6;;
23360;SDS011;11852;50.082;18.554;2024-02-28T00:40:58;73.9;;;48.9;;
23360;SDS011;11852;50.082;18.554;2024-02-28T00:42:03;77.3;;;50.6;;
23360;SDS011;11852;50.082;18.554;2024-02-28T00:43:08;80.6;;;51.9;;
23360;SDS011;11852;50.082;18.554;2024-02-28T00:44:14;78.7;;;49.9;;
23360;SDS011;11852;50.082;18.554;2024-02-28T00:45:19;76.3;;;51.3;;
23360;SDS011;11852;50.082;18.554;2024-02-28T00:46:24;73.2;;;49.1;;
23360;SDS011;11852;50.082;18.554;2024-02-28T00:47:32;78.3;;;50.5;;
23360;SDS011;11852;50.082;18.554;2024-02-28T00:48:38;77.6;;;51.6;;
23360;SDS011;11852;50.082;18.554;2024-02-28T00:49:43;75.8;;;49.8;;
23360;SDS011;11852;50.082;18.554;2024-02-28T00:50:48;78.2;;;51.5;;
23360;SDS011;11852;50.082;18.554;2024-02-28T00:51:53;78.4;;;50.6;;
23360;SDS011;11852;50.082;18.554;2024-02-28T00:52:58;78.3;;;49.0;;
23360;SDS011;11852;50.082;18.554;2024-02-28T00:54:03;76.7;;;49.5;;
23360;SDS011;11852;50.082;18.554;2024-02-28T00:55:09;75.5;;;49.3;;
23360;SDS011;11852;50.082;18.554;2024-02-28T00:56:14;77.0;;;49.9;;
23360;SDS011;11852;50.082;18.554;2024-02-28T00:57:19;74.9;;;48.3;;
23360;SDS011;11852;50.082;18.554;2024-02-28T00:58:25;74.5;;;49.4;;
23360;SDS011;11852;50.082;18.554;2024-02-28T00:59:30;79.0;;;52.1;;
23360;SDS011;11852;50.082;18.554;2024-02-28T01:00:34;75.3;;;49.4;;
23360;SDS011;11852;50.082;18.554;2024-02-28T01:01:41;75.6;;;48.2;;
23360;SDS011;11852;50.082;18.554;2024-02-28T01:02:45;77.8;;;52.1;;
23360;SDS011;11852;50.082;18.554;2024-02-28T01:03:50;75.9;;;49.3;;
23360;SDS011;11852;50.082;18.554;2024-02-28T01:04:59;80.2;;;49.2;;
23360;SDS011;11852;50.082;18.554;2024-02-28T01:06:04;72.7;;;47.0;;
23360;SDS011;11852;50.082;18.554;2024-02-28T01:07:09;75.6;;;49.0;;
23360;SDS011;11852;50.082;18.554;2024-02-28T01:08:14;72.5;;;50.0;;
23360;SDS011;11852;50.082;18.554;2024-02-28T01:09:19;73.5;;;46.9;;
23360;SDS011;11852;50.082;18.554;2024-02-28T01:10:24;71.5;;;48.2;;
23360;SDS011;11852;50.082;18.554;2024-02-28T01:11:29;73.8;;;48.6;;
23360;SDS011;11852;50.082;18.554;2024-02-28T01:12:37;73.9;;;49.3;;
23360;SDS011;11852;50.082;18.554;2024-02-28T01:13:42;85.7;;;54.3;;
23360;SDS011;11852;50.082;18.554;2024-02-28T01:14:47;79.7;;;49.6;;
23360;SDS011;11852;50.082;18.554;2024-02-28T01:15:52;86.8;;;55.2;;
23360;SDS011;11852;50.082;18.554;2024-02-28T01:16:57;85.5;;;54.6;;
23360;SDS011;11852;50.082;18.554;2024-02-28T01:18:01;84.7;;;53.8;;
23360;SDS011;11852;50.082;18.554;2024-02-28T01:19:06;91.6;;;59.0;;
23360;SDS011;11852;50.082;18.554;2024-02-28T01:20:12;94.0;;;58.9;;
23360;SDS011;11852;50.082;18.554;2024-02-28T01:21:16;87.5;;;55.3;;
23360;SDS011;11852;50.082;18.554;2024-02-28T01:22:21;87.6;;;54.6;;
23360;SDS011;11852;50.082;18.554;2024-02-28T01:23:26;89.3;;;57.4;;
23360;SDS011;11852;50.082;18.554;2024-02-28T01:24:31;92.7;;;59.7;;
23360;SDS011;11852;50.082;18.554;2024-02-28T01:25:37;94.1;;;58.1;;
23360;SDS011;11852;50.082;18.554;2024-02-28T01:26:42;94.8;;;58.8;;
23360;SDS011;11852;50.082;18.554;2024-02-28T01:27:47;98.0;;;61.0;;
23360;SDS011;11852;50.082;18.554;2024-02-28T01:28:52;94.8;;;58.4;;
23360;SDS011;11852;50.082;18.554;2024-02-28T01:29:57;94.2;;;58.2;;
23360;SDS011;11852;50.082;18.554;2024-02-28T01:31:03;97.6;;;60.1;;
23360;SDS011;11852;50.082;18.554;2024-02-28T01:32:08;96.1;;;59.8;;
23360;SDS011;11852;50.082;18.554;2024-02-28T01:33:14;105.2;;;64.0;;
23360;SDS011;11852;50.082;18.554;2024-02-28T01:34:19;101.1;;;59.9;;
23360;SDS011;11852;50.082;18.554;2024-02-28T01:35:23;103.2;;;62.3;;
23360;SDS011;11852;50.082;18.554;2024-02-28T01:36:28;102.1;;;62.2;;
23360;SDS011;11852;50.082;18.554;2024-02-28T01:37:33;100.4;;;61.0;;
23360;SDS011;11852;50.082;18.554;2024-02-28T01:38:38;102.1;;;61.8;;
23360;SDS011;11852;50.082;18.554;2024-02-28T01:39:43;97.2;;;58.6;;
23360;SDS011;11852;50.082;18.554;2024-02-28T01:40:48;103.5;;;63.2;;
23360;SDS011;11852;50.082;18.554;2024-02-28T01:41:53;95.5;;;60.0;;
23360;SDS011;11852;50.082;18.554;2024-02-28T01:44:12;100.0;;;61.6;;
23360;SDS011;11852;50.082;18.554;2024-02-28T01:45:17;100.9;;;62.9;;
23360;SDS011;11852;50.082;18.554;2024-02-28T01:46:23;97.2;;;59.6;;
23360;SDS011;11852;50.082;18.554;2024-02-28T01:47:27;94.5;;;56.7;;
23360;SDS011;11852;50.082;18.554;2024-02-28T01:48:32;93.3;;;59.3;;
23360;SDS011;11852;50.082;18.554;2024-02-28T01:49:37;96.2;;;59.6;;
23360;SDS011;11852;50.082;18.554;2024-02-28T01:50:45;98.2;;;59.8;;
23360;SDS011;11852;50.082;18.554;2024-02-28T01:51:50;96.9;;;60.2;;
23360;SDS011;11852;50.082;18.554;2024-02-28T01:52:54;98.7;;;61.0;;
23360;SDS011;11852;50.082;18.554;2024-02-28T01:53:59;94.6;;;58.7;;
23360;SDS011;11852;50.082;18.554;2024-02-28T01:55:04;100.1;;;59.7;;
23360;SDS011;11852;50.082;18.554;2024-02-28T01:56:10;95.1;;;59.4;;
23360;SDS011;11852;50.082;18.554;2024-02-28T01:57:14;95.9;;;58.8;;
23360;SDS011;11852;50.082;18.554;2024-02-28T01:58:19;91.2;;;58.9;;
23360;SDS011;11852;50.082;18.554;2024-02-28T01:59:24;92.9;;;58.4;;
23360;SDS011;11852;50.082;18.554;2024-02-28T02:00:29;88.5;;;54.8;;
23360;SDS011;11852;50.082;18.554;2024-02-28T02:01:34;88.9;;;55.7;;
23360;SDS011;11852;50.082;18.554;2024-02-28T02:02:39;85.7;;;55.5;;
23360;SDS011;11852;50.082;18.554;2024-02-28T02:03:44;83.8;;;54.2;;
23360;SDS011;11852;50.082;18.554;2024-02-28T02:04:49;83.7;;;52.6;;
23360;SDS011;11852;50.082;18.554;2024-02-28T02:05:54;81.7;;;54.0;;
23360;SDS011;11852;50.082;18.554;2024-02-28T02:06:59;83.4;;;53.8;;
23360;SDS011;11852;50.082;18.554;2024-02-28T02:08:04;83.0;;;54.2;;
23360;SDS011;11852;50.082;18.554;2024-02-28T02:09:09;79.6;;;51.6;;
23360;SDS011;11852;50.082;18.554;2024-02-28T02:10:14;85.6;;;54.9;;
23360;SDS011;11852;50.082;18.554;2024-02-28T02:11:19;83.6;;;53.9;;
23360;SDS011;11852;50.082;18.554;2024-02-28T02:12:24;81.1;;;52.3;;
23360;SDS011;11852;50.082;18.554;2024-02-28T02:13:29;81.6;;;52.2;;
23360;SDS011;11852;50.082;18.554;2024-02-28T02:14:37;83.4;;;54.8;;
23360;SDS011;11852;50.082;18.554;2024-02-28T02:15:42;81.8;;;54.5;;
23360;SDS011;11852;50.082;18.554;2024-02-28T02:16:46;82.4;;;51.4;;
23360;SDS011;11852;50.082;18.554;2024-02-28T02:17:51;84.9;;;55.5;;
23360;SDS011;11852;50.082;18.554;2024-02-28T02:18:56;79.7;;;51.9;;
23360;SDS011;11852;50.082;18.554;2024-02-28T02:20:01;80.9;;;52.4;;
23360;SDS011;11852;50.082;18.554;2024-02-28T02:21:06;78.9;;;51.7;;
23360;SDS011;11852;50.082;18.554;2024-02-28T02:22:13;79.8;;;51.5;;
23360;SDS011;11852;50.082;18.554;2024-02-28T02:23:17;81.3;;;52.6;;
23360;SDS011;11852;50.082;18.554;2024-02-28T02:24:22;85.6;;;54.6;;
23360;SDS011;11852;50.082;18.554;2024-02-28T02:25:27;78.5;;;51.3;;
23360;SDS011;11852;50.082;18.554;2024-02-28T02:26:31;79.4;;;52.8;;
23360;SDS011;11852;50.082;18.554;2024-02-28T02:27:36;82.3;;;52.6;;
23360;SDS011;11852;50.082;18.554;2024-02-28T02:28:41;80.5;;;52.5;;
23360;SDS011;11852;50.082;18.554;2024-02-28T02:29:46;77.9;;;50.1;;
23360;SDS011;11852;50.082;18.554;2024-02-28T02:30:51;80.1;;;52.1;;
23360;SDS011;11852;50.082;18.554;2024-02-28T02:31:56;77.9;;;50.3;;
23360;SDS011;11852;50.082;18.554;2024-02-28T02:33:01;78.8;;;53.2;;
23360;SDS011;11852;50.082;18.554;2024-02-28T02:34:06;76.1;;;49.8;;
23360;SDS011;11852;50.082;18.554;2024-02-28T02:35:13;75.9;;;50.4;;
23360;SDS011;11852;50.082;18.554;2024-02-28T02:36:21;78.5;;;52.1;;
23360;SDS011;11852;50.082;18.554;2024-02-28T02:37:26;79.0;;;50.8;;
23360;SDS011;11852;50.082;18.554;2024-02-28T02:38:31;76.3;;;48.2;;
23360;SDS011;11852;50.082;18.554;2024-02-28T02:39:36;78.3;;;51.3;;
23360;SDS011;11852;50.082;18.554;2024-02-28T02:40:41;78.2;;;51.3;;
23360;SDS011;11852;50.082;18.554;2024-02-28T02:41:46;78.9;;;49.6;;
23360;SDS011;11852;50.082;18.554;2024-02-28T02:42:51;74.9;;;48.2;;
23360;SDS011;11852;50.082;18.554;2024-02-28T02:43:56;71.8;;;48.7;;
23360;SDS011;11852;50.082;18.554;2024-02-28T02:45:01;75.8;;;50.2;;
23360;SDS011;11852;50.082;18.554;2024-02-28T02:46:06;75.9;;;49.5;;
23360;SDS011;11852;50.082;18.554;2024-02-28T02:47:10;78.9;;;49.8;;
23360;SDS011;11852;50.082;18.554;2024-02-28T02:48:15;77.8;;;51.5;;
23360;SDS011;11852;50.082;18.554;2024-02-28T02:49:20;80.7;;;52.1;;
23360;SDS011;11852;50.082;18.554;2024-02-28T02:50:25;77.0;;;47.8;;
23360;SDS011;11852;50.082;18.554;2024-02-28T02:51:33;78.5;;;50.7;;
23360;SDS011;11852;50.082;18.554;2024-02-28T02:52:37;73.9;;;47.9;;
23360;SDS011;11852;50.082;18.554;2024-02-28T02:53:43;72.3;;;48.1;;
23360;SDS011;11852;50.082;18.554;2024-02-28T02:54:49;73.7;;;48.9;;
23360;SDS011;11852;50.082;18.554;2024-02-28T02:55:57;74.1;;;48.8;;
23360;SDS011;11852;50.082;18.554;2024-02-28T02:57:02;75.1;;;49.4;;
23360;SDS011;11852;50.082;18.554;2024-02-28T02:58:07;74.7;;;49.4;;
23360;SDS011;11852;50.082;18.554;2024-02-28T02:59:12;72.4;;;48.1;;
23360;SDS011;11852;50.082;18.554;2024-02-28T03:00:18;75.3;;;49.1;;
23360;SDS011;11852;50.082;18.554;2024-02-28T03:01:23;73.6;;;50.1;;
23360;SDS011;11852;50.082;18.554;2024-02-28T03:02:28;72.6;;;47.2;;
23360;SDS011;11852;50.082;18.554;2024-02-28T03:03:33;70.9;;;45.7;;
23360;SDS011;11852;50.082;18.554;2024-02-28T03:04:38;69.6;;;46.2;;
23360;SDS011;11852;50.082;18.554;2024-02-28T03:05:43;65.3;;;44.1;;
23360;SDS011;11852;50.082;18.554;2024-02-28T03:06:48;64.2;;;43.4;;
23360;SDS011;11852;50.082;18.554;2024-02-28T03:07:53;66.0;;;43.5;;
23360;SDS011;11852;50.082;18.554;2024-02-28T03:08:58;67.2;;;44.4;;
23360;SDS011;11852;50.082;18.554;2024-02-28T03:10:02;70.4;;;45.3;;
23360;SDS011;11852;50.082;18.554;2024-02-28T03:11:08;67.4;;;44.1;;
23360;SDS011;11852;50.082;18.554;2024-02-28T03:12:13;65.9;;;44.6;;
23360;SDS011;11852;50.082;18.554;2024-02-28T03:13:18;71.2;;;46.5;;
23360;SDS011;11852;50.082;18.554;2024-02-28T03:14:22;71.4;;;47.5;;
23360;SDS011;11852;50.082;18.554;2024-02-28T03:15:27;69.5;;;45.5;;
23360;SDS011;11852;50.082;18.554;2024-02-28T03:16:32;74.6;;;47.9;;
23360;SDS011;11852;50.082;18.554;2024-02-28T03:17:37;72.7;;;48.0;;
23360;SDS011;11852;50.082;18.554;2024-02-28T03:18:42;75.4;;;49.1;;
23360;SDS011;11852;50.082;18.554;2024-02-28T03:19:47;74.7;;;48.5;;
23360;SDS011;11852;50.082;18.554;2024-02-28T03:20:53;75.4;;;49.4;;
23360;SDS011;11852;50.082;18.554;2024-02-28T03:21:58;75.8;;;48.2;;
23360;SDS011;11852;50.082;18.554;2024-02-28T03:23:03;77.1;;;49.9;;
23360;SDS011;11852;50.082;18.554;2024-02-28T03:24:08;73.2;;;47.2;;
23360;SDS011;11852;50.082;18.554;2024-02-28T03:25:16;74.8;;;49.1;;
23360;SDS011;11852;50.082;18.554;2024-02-28T03:26:21;74.8;;;49.6;;
23360;SDS011;11852;50.082;18.554;2024-02-28T03:27:28;75.1;;;48.2;;
23360;SDS011;11852;50.082;18.554;2024-02-28T03:28:33;76.4;;;49.9;;
23360;SDS011;11852;50.082;18.554;2024-02-28T03:29:38;79.6;;;51.3;;
23360;SDS011;11852;50.082;18.554;2024-02-28T03:30:43;74.4;;;49.7;;
23360;SDS011;11852;50.082;18.554;2024-02-28T03:31:48;77.2;;;48.7;;
23360;SDS011;11852;50.082;18.554;2024-02-28T03:32:53;77.8;;;51.9;;
23360;SDS011;11852;50.082;18.554;2024-02-28T03:33:58;80.5;;;50.7;;
23360;SDS011;11852;50.082;18.554;2024-02-28T03:35:03;73.8;;;48.2;;
23360;SDS011;11852;50.082;18.554;2024-02-28T03:36:08;74.8;;;49.0;;
23360;SDS011;11852;50.082;18.554;2024-02-28T03:37:13;78.4;;;49.2;;
23360;SDS011;11852;50.082;18.554;2024-02-28T03:38:20;81.6;;;53.0;;
23360;SDS011;11852;50.082;18.554;2024-02-28T03:39:25;85.6;;;52.7;;
23360;SDS011;11852;50.082;18.554;2024-02-28T03:40:30;93.0;;;57.6;;
23360;SDS011;11852;50.082;18.554;2024-02-28T03:41:35;102.9;;;62.1;;
23360;SDS011;11852;50.082;18.554;2024-02-28T03:42:40;101.4;;;61.9;;
23360;SDS011;11852;50.082;18.554;2024-02-28T03:43:45;105.0;;;64.0;;
23360;SDS011;11852;50.082;18.554;2024-02-28T03:44:50;109.3;;;61.8;;
23360;SDS011;11852;50.082;18.554;2024-02-28T03:45:55;111.5;;;66.0;;
23360;SDS011;11852;50.082;18.554;2024-02-28T03:47:00;110.1;;;65.9;;
23360;SDS011;11852;50.082;18.554;2024-02-28T03:48:05;113.6;;;66.7;;
23360;SDS011;11852;50.082;18.554;2024-02-28T03:49:10;105.7;;;61.8;;
23360;SDS011;11852;50.082;18.554;2024-02-28T03:50:15;108.6;;;65.4;;
23360;SDS011;11852;50.082;18.554;2024-02-28T03:51:21;109.7;;;65.4;;
23360;SDS011;11852;50.082;18.554;2024-02-28T03:52:26;109.2;;;64.7;;
23360;SDS011;11852;50.082;18.554;2024-02-28T03:53:31;105.2;;;63.1;;
23360;SDS011;11852;50.082;18.554;2024-02-28T03:54:35;106.2;;;63.6;;
23360;SDS011;11852;50.082;18.554;2024-02-28T03:55:41;105.6;;;64.3;;
23360;SDS011;11852;50.082;18.554;2024-02-28T03:56:46;104.4;;;62.5;;
23360;SDS011;11852;50.082;18.554;2024-02-28T03:57:50;106.3;;;65.0;;
23360;SDS011;11852;50.082;18.554;2024-02-28T03:58:56;103.9;;;61.5;;
23360;SDS011;11852;50.082;18.554;2024-02-28T04:00:01;110.0;;;63.4;;
23360;SDS011;11852;50.082;18.554;2024-02-28T04:01:05;106.5;;;66.1;;
23360;SDS011;11852;50.082;18.554;2024-02-28T04:02:10;109.7;;;64.0;;
23360;SDS011;11852;50.082;18.554;2024-02-28T04:03:15;104.4;;;64.3;;
23360;SDS011;11852;50.082;18.554;2024-02-28T04:04:20;108.1;;;64.6;;
23360;SDS011;11852;50.082;18.554;2024-02-28T04:05:25;107.4;;;62.8;;
23360;SDS011;11852;50.082;18.554;2024-02-28T04:06:30;109.9;;;65.1;;
23360;SDS011;11852;50.082;18.554;2024-02-28T04:07:35;109.2;;;65.6;;
23360;SDS011;11852;50.082;18.554;2024-02-28T04:08:40;105.5;;;63.1;;
23360;SDS011;11852;50.082;18.554;2024-02-28T04:09:45;103.6;;;61.3;;
23360;SDS011;11852;50.082;18.554;2024-02-28T04:10:48;103.6;;;61.3;;
23360;SDS011;11852;50.082;18.554;2024-02-28T04:11:51;103.6;;;61.3;;
23360;SDS011;11852;50.082;18.554;2024-02-28T04:13:54;103.6;;;61.3;;
23360;SDS011;11852;50.082;18.554;2024-02-28T04:15:46;103.6;;;61.3;;
23360;SDS011;11852;50.082;18.554;2024-02-28T04:17:49;103.6;;;61.3;;
23360;SDS011;11852;50.082;18.554;2024-02-28T04:19:54;103.6;;;61.3;;
23360;SDS011;11852;50.082;18.554;2024-02-28T04:21:57;103.6;;;61.3;;
23360;SDS011;11852;50.082;18.554;2024-02-28T04:23:02;97.6;;;58.3;;
23360;SDS011;11852;50.082;18.554;2024-02-28T04:24:07;95.0;;;58.0;;
23360;SDS011;11852;50.082;18.554;2024-02-28T04:25:11;91.8;;;56.2;;
23360;SDS011;11852;50.082;18.554;2024-02-28T04:26:16;90.7;;;55.4;;
23360;SDS011;11852;50.082;18.554;2024-02-28T04:27:21;92.4;;;56.6;;
23360;SDS011;11852;50.082;18.554;2024-02-28T04:28:29;91.9;;;56.1;;
23360;SDS011;11852;50.082;18.554;2024-02-28T04:29:33;92.2;;;57.2;;
23360;SDS011;11852;50.082;18.554;2024-02-28T04:30:38;90.2;;;54.7;;
23360;SDS011;11852;50.082;18.554;2024-02-28T04:31:43;93.5;;;57.6;;
23360;SDS011;11852;50.082;18.554;2024-02-28T04:32:48;92.6;;;56.8;;
23360;SDS011;11852;50.082;18.554;2024-02-28T04:33:52;92.6;;;55.7;;
23360;SDS011;11852;50.082;18.554;2024-02-28T04:34:57;88.6;;;54.1;;
23360;SDS011;11852;50.082;18.554;2024-02-28T04:36:02;86.4;;;51.9;;
23360;SDS011;11852;50.082;18.554;2024-02-28T04:37:07;90.2;;;55.2;;
23360;SDS011;11852;50.082;18.554;2024-02-28T04:38:14;91.6;;;54.5;;
23360;SDS011;11852;50.082;18.554;2024-02-28T04:39:19;89.4;;;55.4;;
23360;SDS011;11852;50.082;18.554;2024-02-28T04:40:27;93.1;;;55.8;;
23360;SDS011;11852;50.082;18.554;2024-02-28T04:41:31;93.5;;;56.9;;
23360;SDS011;11852;50.082;18.554;2024-02-28T04:42:36;88.5;;;54.2;;
23360;SDS011;11852;50.082;18.554;2024-02-28T04:43:44;92.5;;;55.1;;
23360;SDS011;11852;50.082;18.554;2024-02-28T04:44:54;91.8;;;56.7;;
23360;SDS011;11852;50.082;18.554;2024-02-28T04:45:59;89.1;;;54.7;;
23360;SDS011;11852;50.082;18.554;2024-02-28T04:47:04;92.5;;;55.8;;
23360;SDS011;11852;50.082;18.554;2024-02-28T04:48:09;91.2;;;56.7;;
23360;SDS011;11852;50.082;18.554;2024-02-28T04:49:13;89.9;;;55.5;;
23360;SDS011;11852;50.082;18.554;2024-02-28T04:50:18;91.8;;;54.3;;
23360;SDS011;11852;50.082;18.554;2024-02-28T04:51:23;91.1;;;55.2;;
23360;SDS011;11852;50.082;18.554;2024-02-28T04:52:28;91.6;;;55.5;;
23360;SDS011;11852;50.082;18.554;2024-02-28T04:53:32;91.8;;;53.8;;
23360;SDS011;11852;50.082;18.554;2024-02-28T04:54:39;93.0;;;56.2;;
23360;SDS011;11852;50.082;18.554;2024-02-28T04:55:42;92.5;;;54.3;;
23360;SDS011;11852;50.082;18.554;2024-02-28T04:56:47;91.6;;;54.9;;
23360;SDS011;11852;50.082;18.554;2024-02-28T04:57:51;93.2;;;55.8;;
23360;SDS011;11852;50.082;18.554;2024-02-28T04:58:56;86.5;;;53.2;;
23360;SDS011;11852;50.082;18.554;2024-02-28T05:00:01;79.3;;;49.1;;
23360;SDS011;11852;50.082;18.554;2024-02-28T05:01:05;74.7;;;47.2;;
23360;SDS011;11852;50.082;18.554;2024-02-28T05:02:13;82.0;;;51.3;;
23360;SDS011;11852;50.082;18.554;2024-02-28T05:03:18;79.9;;;48.7;;
23360;SDS011;11852;50.082;18.554;2024-02-28T05:04:23;76.4;;;48.6;;
23360;SDS011;11852;50.082;18.554;2024-02-28T05:05:28;73.3;;;46.2;;
23360;SDS011;11852;50.082;18.554;2024-02-28T05:06:32;78.2;;;48.2;;
23360;SDS011;11852;50.082;18.554;2024-02-28T05:07:37;82.1;;;50.7;;
23360;SDS011;11852;50.082;18.554;2024-02-28T05:08:42;74.9;;;46.0;;
23360;SDS011;11852;50.082;18.554;2024-02-28T05:09:47;76.4;;;47.7;;
23360;SDS011;11852;50.082;18.554;2024-02-28T05:10:51;79.7;;;49.4;;
23360;SDS011;11852;50.082;18.554;2024-02-28T05:11:56;84.3;;;51.1;;
23360;SDS011;11852;50.082;18.554;2024-02-28T05:13:01;80.4;;;47.4;;
23360;SDS011;11852;50.082;18.554;2024-02-28T05:14:06;80.2;;;49.5;;
23360;SDS011;11852;50.082;18.554;2024-02-28T05:15:11;81.8;;;49.8;;
23360;SDS011;11852;50.082;18.554;2024-02-28T05:16:19;82.5;;;48.9;;
23360;SDS011;11852;50.082;18.554;2024-02-28T05:17:24;75.7;;;46.7;;
23360;SDS011;11852;50.082;18.554;2024-02-28T05:18:29;80.3;;;48.5;;
23360;SDS011;11852;50.082;18.554;2024-02-28T05:19:34;81.0;;;46.8;;
23360;SDS011;11852;50.082;18.554;2024-02-28T05:20:39;81.3;;;48.8;;
23360;SDS011;11852;50.082;18.554;2024-02-28T05:21:44;78.5;;;48.3;;
23360;SDS011;11852;50.082;18.554;2024-02-28T05:22:49;77.6;;;48.3;;
23360;SDS011;11852;50.082;18.554;2024-02-28T05:23:54;78.3;;;47.7;;
23360;SDS011;11852;50.082;18.554;2024-02-28T05:24:59;79.0;;;48.3;;
23360;SDS011;11852;50.082;18.554;2024-02-28T05:26:04;80.4;;;48.0;;
23360;SDS011;11852;50.082;18.554;2024-02-28T05:27:09;87.4;;;52.0;;
23360;SDS011;11852;50.082;18.554;2024-02-28T05:28:14;82.9;;;49.6;;
23360;SDS011;11852;50.082;18.554;2024-02-28T05:29:19;84.8;;;50.8;;
23360;SDS011;11852;50.082;18.554;2024-02-28T05:30:23;81.1;;;48.1;;
23360;SDS011;11852;50.082;18.554;2024-02-28T05:31:28;88.7;;;52.2;;
23360;SDS011;11852;50.082;18.554;2024-02-28T05:32:36;75.6;;;45.8;;
23360;SDS011;11852;50.082;18.554;2024-02-28T05:33:41;74.3;;;44.4;;
23360;SDS011;11852;50.082;18.554;2024-02-28T05:34:46;73.6;;;44.6;;
23360;SDS011;11852;50.082;18.554;2024-02-28T05:35:51;71.7;;;44.9;;
23360;SDS011;11852;50.082;18.554;2024-02-28T05:36:56;72.6;;;44.4;;
23360;SDS011;11852;50.082;18.554;2024-02-28T05:38:01;71.7;;;44.1;;
23360;SDS011;11852;50.082;18.554;2024-02-28T05:39:09;74.9;;;46.4;;
23360;SDS011;11852;50.082;18.554;2024-02-28T05:40:13;71.3;;;45.2;;
23360;SDS011;11852;50.082;18.554;2024-02-28T05:41:18;74.0;;;45.1;;
23360;SDS011;11852;50.082;18.554;2024-02-28T05:42:23;74.7;;;46.4;;
23360;SDS011;11852;50.082;18.554;2024-02-28T05:43:28;77.9;;;47.0;;
23360;SDS011;11852;50.082;18.554;2024-02-28T05:44:32;73.9;;;46.4;;
23360;SDS011;11852;50.082;18.554;2024-02-28T05:45:37;80.1;;;47.3;;
23360;SDS011;11852;50.082;18.554;2024-02-28T05:46:42;74.4;;;45.7;;
23360;SDS011;11852;50.082;18.554;2024-02-28T05:47:49;74.2;;;44.9;;
23360;SDS011;11852;50.082;18.554;2024-02-28T05:48:54;75.9;;;46.6;;
23360;SDS011;11852;50.082;18.554;2024-02-28T05:49:59;77.8;;;47.6;;
23360;SDS011;11852;50.082;18.554;2024-02-28T05:51:04;71.8;;;43.5;;
23360;SDS011;11852;50.082;18.554;2024-02-28T05:52:09;73.6;;;45.1;;
23360;SDS011;11852;50.082;18.554;2024-02-28T05:53:13;74.9;;;46.2;;
23360;SDS011;11852;50.082;18.554;2024-02-28T05:54:18;81.0;;;49.8;;
23360;SDS011;11852;50.082;18.554;2024-02-28T05:55:23;86.2;;;50.1;;
23360;SDS011;11852;50.082;18.554;2024-02-28T05:56:27;87.7;;;51.5;;
23360;SDS011;11852;50.082;18.554;2024-02-28T05:57:32;83.5;;;50.7;;
23360;SDS011;11852;50.082;18.554;2024-02-28T05:58:37;83.4;;;50.4;;
23360;SDS011;11852;50.082;18.554;2024-02-28T05:59:42;82.8;;;48.3;;
23360;SDS011;11852;50.082;18.554;2024-02-28T06:00:46;81.0;;;49.5;;
23360;SDS011;11852;50.082;18.554;2024-02-28T06:01:51;85.7;;;51.5;;
23360;SDS011;11852;50.082;18.554;2024-02-28T06:02:56;82.9;;;50.4;;
23360;SDS011;11852;50.082;18.554;2024-02-28T06:04:03;84.0;;;49.1;;
23360;SDS011;11852;50.082;18.554;2024-02-28T06:05:06;85.5;;;48.9;;
23360;SDS011;11852;50.082;18.554;2024-02-28T06:06:11;82.0;;;48.7;;
23360;SDS011;11852;50.082;18.554;2024-02-28T06:07:15;82.0;;;50.6;;
23360;SDS011;11852;50.082;18.554;2024-02-28T06:08:20;83.2;;;48.9;;
23360;SDS011;11852;50.082;18.554;2024-02-28T06:09:28;82.7;;;49.4;;
23360;SDS011;11852;50.082;18.554;2024-02-28T06:10:35;82.7;;;48.7;;
23360;SDS011;11852;50.082;18.554;2024-02-28T06:11:40;87.0;;;50.0;;
23360;SDS011;11852;50.082;18.554;2024-02-28T06:12:45;82.4;;;49.5;;
23360;SDS011;11852;50.082;18.554;2024-02-28T06:13:50;83.4;;;50.0;;
23360;SDS011;11852;50.082;18.554;2024-02-28T06:14:54;82.4;;;49.2;;
23360;SDS011;11852;50.082;18.554;2024-02-28T06:15:59;75.8;;;44.6;;
23360;SDS011;11852;50.082;18.554;2024-02-28T06:17:04;82.1;;;48.2;;
23360;SDS011;11852;50.082;18.554;2024-02-28T06:18:09;82.2;;;50.1;;
23360;SDS011;11852;50.082;18.554;2024-02-28T06:19:14;83.6;;;49.1;;
23360;SDS011;11852;50.082;18.554;2024-02-28T06:20:18;80.2;;;48.1;;
23360;SDS011;11852;50.082;18.554;2024-02-28T06:21:23;75.4;;;46.0;;
23360;SDS011;11852;50.082;18.554;2024-02-28T06:22:28;75.8;;;47.1;;
23360;SDS011;11852;50.082;18.554;2024-02-28T06:23:33;82.1;;;48.4;;
23360;SDS011;11852;50.082;18.554;2024-02-28T06:24:37;88.1;;;50.9;;
23360;SDS011;11852;50.082;18.554;2024-02-28T06:25:44;84.6;;;49.7;;
23360;SDS011;11852;50.082;18.554;2024-02-28T06:26:49;84.2;;;49.6;;
23360;SDS011;11852;50.082;18.554;2024-02-28T06:27:53;81.8;;;47.5;;
23360;SDS011;11852;50.082;18.554;2024-02-28T06:28:58;81.3;;;47.5;;
23360;SDS011;11852;50.082;18.554;2024-02-28T06:30:03;79.1;;;45.8;;
23360;SDS011;11852;50.082;18.554;2024-02-28T06:31:14;85.6;;;48.9;;
23360;SDS011;11852;50.082;18.554;2024-02-28T06:32:16;80.6;;;46.6;;
23360;SDS011;11852;50.082;18.554;2024-02-28T06:33:20;77.8;;;45.4;;